createdAt,value
2022-10-30T04:35:12.832Z,11.60
2022-10-30T04:38:02.675Z,11.70
2022-10-30T04:40:39.209Z,11.60
2022-10-30T04:43:14.353Z,11.50
2022-10-30T04:45:48.598Z,11.50
2022-10-30T04:48:21.686Z,11.40
2022-10-30T04:50:54.509Z,11.40
2022-10-30T04:53:30.456Z,11.40
2022-10-30T04:56:10.635Z,11.40
2022-10-30T04:58:44.226Z,11.40
2022-10-30T05:01:17.218Z,11.40
2022-10-30T05:03:54.594Z,11.40
2022-10-30T05:06:30.403Z,11.40
2022-10-30T05:09:03.732Z,11.40
2022-10-30T05:11:47.204Z,11.40
2022-10-30T05:14:19.943Z,11.50
2022-10-30T05:16:53.591Z,11.50
2022-10-30T05:19:27.098Z,11.50
2022-10-30T05:22:02.724Z,11.60
2022-10-30T05:24:35.581Z,11.60
2022-10-30T05:27:08.559Z,11.60
2022-10-30T05:29:41.591Z,11.60
2022-10-30T05:32:15.496Z,11.60
2022-10-30T05:34:52.005Z,11.60
2022-10-30T05:37:28.640Z,11.60
2022-10-30T05:40:01.733Z,11.60
2022-10-30T05:42:36.492Z,11.60
2022-10-30T05:45:10.744Z,11.60
2022-10-30T05:47:44.268Z,11.60
2022-10-30T05:50:17.267Z,11.50
2022-10-30T05:53:05.120Z,11.60
2022-10-30T05:55:38.904Z,11.50
2022-10-30T05:58:16.658Z,11.50
2022-10-30T06:00:51.750Z,11.50
2022-10-30T06:03:36.348Z,11.50
2022-10-30T06:06:09.798Z,11.60
2022-10-30T06:08:42.914Z,11.60
2022-10-30T06:11:34.937Z,11.50
2022-10-30T06:14:08.427Z,11.60
2022-10-30T06:16:50.407Z,11.60
2022-10-30T06:19:38.181Z,11.60
2022-10-30T06:22:37.279Z,11.60
2022-10-30T06:25:19.655Z,11.60
2022-10-30T06:28:13.498Z,11.60
2022-10-30T06:30:47.639Z,11.60
2022-10-30T06:33:20.568Z,11.60
2022-10-30T06:35:56.208Z,11.60
2022-10-30T06:38:29.382Z,11.60
2022-10-30T06:41:02.710Z,11.60
2022-10-30T06:43:54.271Z,11.60
2022-10-30T06:46:33.443Z,11.60
2022-10-30T06:49:07.201Z,11.60
2022-10-30T06:51:40.369Z,11.60
2022-10-30T06:54:13.290Z,11.60
2022-10-30T06:56:50.603Z,11.60
2022-10-30T06:59:49.275Z,11.70
2022-10-30T07:02:44.942Z,11.70
2022-10-30T07:05:19.479Z,11.70
2022-10-30T07:07:52.343Z,11.70
2022-10-30T07:10:25.360Z,11.60
2022-10-30T07:13:19.030Z,11.60
2022-10-30T07:16:00.267Z,11.60
2022-10-30T07:18:40.000Z,11.60
2022-10-30T07:21:13.092Z,11.70
2022-10-30T07:23:47.012Z,11.80
2022-10-30T07:26:37.970Z,11.80
2022-10-30T07:29:27.640Z,11.90
2022-10-30T07:32:29.589Z,12.00
2022-10-30T07:35:16.165Z,12.10
2022-10-30T07:38:12.879Z,12.10
2022-10-30T07:41:01.148Z,12.20
2022-10-30T07:43:54.705Z,12.30
2022-10-30T07:47:02.837Z,12.40
2022-10-30T07:49:54.190Z,12.50
2022-10-30T07:52:32.207Z,12.60
2022-10-30T07:55:06.171Z,12.70
2022-10-30T07:58:10.695Z,12.80
2022-10-30T08:00:59.975Z,12.80
2022-10-30T08:03:38.025Z,12.90
2022-10-30T08:06:31.210Z,13.00
2022-10-30T08:09:04.012Z,13.00
2022-10-30T08:11:37.971Z,13.10
2022-10-30T08:14:10.971Z,13.10
2022-10-30T08:16:43.772Z,13.20
2022-10-30T08:19:16.834Z,13.20
2022-10-30T08:21:49.803Z,13.30
2022-10-30T08:24:24.988Z,13.40
2022-10-30T08:26:59.751Z,13.50
2022-10-30T08:29:34.823Z,13.50
2022-10-30T08:32:08.949Z,13.60
2022-10-30T08:35:00.581Z,13.70
2022-10-30T08:37:35.018Z,13.80
2022-10-30T08:40:09.732Z,13.90
2022-10-30T08:42:57.358Z,13.90
2022-10-30T08:45:32.034Z,14.00
2022-10-30T08:48:25.826Z,14.00
2022-10-30T08:51:02.859Z,14.10
2022-10-30T08:53:41.510Z,14.20
2022-10-30T08:56:18.801Z,14.20
2022-10-30T08:59:04.431Z,14.30
2022-10-30T09:01:37.320Z,14.30
2022-10-30T09:04:36.288Z,14.30
2022-10-30T09:07:27.618Z,14.40
2022-10-30T09:10:06.801Z,14.50
2022-10-30T09:12:41.999Z,14.60
2022-10-30T09:15:14.970Z,14.70
2022-10-30T09:18:00.168Z,14.80
2022-10-30T09:20:34.038Z,14.90
2022-10-30T09:23:06.880Z,15.00
2022-10-30T09:25:40.044Z,15.10
2022-10-30T09:28:22.976Z,15.10
2022-10-30T09:31:14.533Z,15.20
2022-10-30T09:33:49.413Z,15.30
2022-10-30T09:36:47.557Z,15.30
2022-10-30T09:39:20.658Z,15.40
2022-10-30T09:42:18.956Z,15.40
2022-10-30T09:48:17.422Z,15.50
2022-10-30T09:51:42.795Z,15.60
2022-10-30T09:54:45.071Z,15.70
2022-10-30T09:57:25.355Z,15.70
2022-10-30T10:00:12.167Z,15.80
2022-10-30T10:02:58.573Z,15.90
2022-10-30T10:05:51.529Z,15.90
2022-10-30T10:09:04.811Z,16.00
2022-10-30T10:12:02.611Z,16.10
2022-10-30T10:14:40.086Z,16.10
2022-10-30T10:17:18.836Z,16.20
2022-10-30T10:19:59.504Z,16.30
2022-10-30T10:22:45.634Z,16.40
2022-10-30T10:25:20.388Z,16.50
2022-10-30T10:28:20.602Z,16.60
2022-10-30T10:31:10.770Z,16.70
2022-10-30T10:34:29.477Z,16.80
2022-10-30T10:37:08.669Z,16.90
2022-10-30T10:40:02.872Z,17.10
2022-10-30T10:42:45.494Z,17.20
2022-10-30T10:45:48.560Z,17.30
2022-10-30T10:48:37.094Z,17.40
2022-10-30T10:51:16.439Z,17.40
2022-10-30T10:53:57.034Z,17.50
2022-10-30T10:56:39.639Z,17.60
2022-10-30T10:59:41.077Z,17.70
2022-10-30T11:02:39.223Z,17.70
2022-10-30T11:05:36.823Z,17.80
2022-10-30T11:08:29.013Z,17.90
2022-10-30T11:11:04.850Z,17.90
2022-10-30T11:13:42.746Z,18.00
2022-10-30T11:16:51.265Z,18.00
2022-10-30T11:19:24.941Z,18.10
2022-10-30T11:21:58.821Z,18.20
2022-10-30T11:24:35.812Z,18.20
2022-10-30T11:27:23.774Z,18.30
2022-10-30T11:30:05.689Z,18.30
2022-10-30T11:32:38.460Z,18.40
2022-10-30T11:35:13.104Z,18.40
2022-10-30T11:37:50.840Z,18.40
2022-10-30T11:40:24.180Z,18.40
2022-10-30T11:43:01.522Z,18.50
2022-10-30T11:45:39.326Z,18.50
2022-10-30T11:48:29.887Z,18.50
2022-10-30T11:51:04.153Z,18.60
2022-10-30T11:53:42.085Z,18.60
2022-10-30T11:56:22.824Z,18.70
2022-10-30T11:58:58.784Z,18.90
2022-10-30T12:01:36.670Z,19.10
2022-10-30T12:04:23.507Z,19.40
2022-10-30T12:07:21.008Z,19.70
2022-10-30T12:09:54.008Z,20.00
2022-10-30T12:12:36.099Z,20.00
2022-10-30T12:15:14.984Z,20.10
2022-10-30T12:18:03.034Z,20.00
2022-10-30T12:20:39.138Z,20.00
2022-10-30T12:23:24.699Z,19.90
2022-10-30T12:26:08.599Z,19.90
2022-10-30T12:28:55.132Z,19.90
2022-10-30T12:32:02.317Z,19.90
2022-10-30T12:34:59.342Z,20.00
2022-10-30T12:37:43.522Z,20.10
2022-10-30T12:40:28.923Z,20.20
2022-10-30T12:43:22.850Z,20.30
2022-10-30T12:46:26.813Z,20.40
2022-10-30T12:49:09.345Z,20.60
2022-10-30T12:52:00.436Z,20.90
2022-10-30T12:54:58.801Z,21.10
2022-10-30T12:57:37.004Z,21.30
2022-10-30T13:00:15.784Z,21.30
2022-10-30T13:03:00.455Z,21.40
2022-10-30T13:05:43.858Z,21.40
2022-10-30T13:08:22.145Z,21.30
2022-10-30T13:11:33.635Z,21.20
2022-10-30T13:14:14.270Z,21.10
2022-10-30T13:16:47.382Z,20.90
2022-10-30T13:19:20.247Z,20.80
2022-10-30T13:22:24.050Z,20.60
2022-10-30T13:25:35.593Z,20.50
2022-10-30T13:28:25.809Z,20.50
2022-10-30T13:30:58.702Z,20.40
2022-10-30T13:33:55.976Z,20.30
2022-10-30T13:36:38.328Z,20.20
2022-10-30T13:39:32.527Z,20.10
2022-10-30T13:42:22.140Z,20.10
2022-10-30T13:45:03.066Z,20.10
2022-10-30T13:48:06.798Z,20.10
2022-10-30T13:51:05.180Z,20.10
2022-10-30T13:53:41.518Z,20.10
2022-10-30T13:56:17.592Z,20.00
2022-10-30T13:59:10.217Z,20.00
2022-10-30T14:02:01.557Z,20.00
2022-10-30T14:04:58.890Z,19.90
2022-10-30T14:07:50.592Z,19.80
2022-10-30T14:10:48.040Z,19.80
2022-10-30T14:13:26.954Z,19.80
2022-10-30T14:16:07.888Z,19.70
2022-10-30T14:18:44.734Z,19.70
2022-10-30T14:21:42.610Z,19.60
2022-10-30T14:24:19.015Z,19.50
2022-10-30T14:27:04.225Z,19.40
2022-10-30T14:29:46.720Z,19.40
2022-10-30T14:32:19.682Z,19.30
2022-10-30T14:34:53.098Z,19.30
2022-10-30T14:37:28.870Z,19.20
2022-10-30T14:40:50.679Z,19.20
2022-10-30T14:43:40.041Z,19.20
2022-10-30T14:46:45.168Z,19.10
2022-10-30T14:49:45.528Z,19.10
2022-10-30T14:52:21.272Z,19.00
2022-10-30T14:54:57.252Z,18.90
2022-10-30T14:57:45.747Z,18.90
2022-10-30T15:00:24.813Z,18.90
2022-10-30T15:03:03.867Z,18.90
2022-10-30T15:05:52.851Z,18.90
2022-10-30T15:08:59.986Z,18.80
2022-10-30T15:12:16.250Z,18.80
2022-10-30T15:14:59.428Z,18.80
2022-10-30T15:17:41.696Z,18.70
2022-10-30T15:20:21.868Z,18.60
2022-10-30T15:22:57.517Z,18.60
2022-10-30T15:25:41.000Z,18.50
2022-10-30T15:28:18.926Z,18.50
2022-10-30T15:31:18.190Z,18.40
2022-10-30T15:33:51.922Z,18.40
2022-10-30T15:36:30.879Z,18.40
2022-10-30T15:39:06.831Z,18.30
2022-10-30T15:42:00.779Z,18.30
2022-10-30T15:44:36.806Z,18.20
2022-10-30T15:47:16.351Z,18.20
2022-10-30T15:49:54.225Z,18.10
2022-10-30T15:52:29.197Z,18.00
2022-10-30T15:55:08.657Z,18.00
2022-10-30T15:58:03.987Z,18.00
2022-10-30T16:00:38.407Z,17.90
2022-10-30T16:03:11.232Z,17.80
2022-10-30T16:05:44.504Z,17.70
2022-10-30T16:08:21.611Z,17.70
2022-10-30T16:10:55.670Z,17.60
2022-10-30T16:13:31.289Z,17.50
2022-10-30T16:16:04.651Z,17.50
2022-10-30T16:18:37.658Z,17.40
2022-10-30T16:21:16.405Z,17.40
2022-10-30T16:23:54.073Z,17.30
2022-10-30T16:26:39.732Z,17.30
2022-10-30T16:29:14.064Z,17.20
2022-10-30T16:31:49.997Z,17.20
2022-10-30T16:34:31.913Z,17.10
2022-10-30T16:37:06.269Z,17.00
2022-10-30T16:39:39.903Z,17.00
2022-10-30T16:42:21.902Z,16.90
2022-10-30T16:45:15.891Z,16.90
2022-10-30T16:48:09.253Z,16.80
2022-10-30T16:50:42.624Z,16.80
2022-10-30T16:53:20.594Z,16.80
2022-10-30T16:55:55.338Z,16.80
2022-10-30T16:58:31.239Z,16.60
2022-10-30T17:01:06.594Z,16.60
2022-10-30T17:03:42.452Z,16.50
2022-10-30T17:06:40.094Z,16.30
2022-10-30T17:09:25.699Z,16.20
2022-10-30T17:12:09.403Z,16.10
2022-10-30T17:15:21.939Z,16.00
2022-10-30T17:18:16.944Z,15.90
2022-10-30T17:21:24.684Z,15.80
2022-10-30T17:23:59.837Z,15.70
2022-10-30T17:26:41.142Z,15.70
2022-10-30T17:29:42.027Z,15.60
2022-10-30T17:32:23.110Z,15.60
2022-10-30T17:35:01.395Z,15.50
2022-10-30T17:37:34.141Z,15.50
2022-10-30T17:40:07.256Z,15.50
2022-10-30T17:42:41.002Z,15.50
2022-10-30T17:45:15.014Z,15.40
2022-10-30T17:47:47.907Z,15.40
2022-10-30T17:50:23.753Z,15.40
2022-10-30T17:52:56.639Z,15.30
2022-10-30T17:55:34.033Z,15.30
2022-10-30T17:58:06.758Z,15.30
2022-10-30T18:00:39.647Z,15.30
2022-10-30T18:03:12.373Z,15.20
2022-10-30T18:05:49.196Z,15.20
2022-10-30T18:08:22.983Z,15.20
2022-10-30T18:10:56.387Z,15.10
2022-10-30T18:13:29.643Z,15.10
2022-10-30T18:16:02.605Z,15.00
2022-10-30T18:18:35.545Z,14.90
2022-10-30T18:21:17.659Z,14.90
2022-10-30T18:23:53.202Z,14.80
2022-10-30T18:26:27.702Z,14.80
2022-10-30T18:29:00.826Z,14.80
2022-10-30T18:31:34.270Z,14.70
2022-10-30T18:34:20.936Z,14.70
2022-10-30T18:36:54.194Z,14.80
2022-10-30T18:39:27.874Z,14.70
2022-10-30T18:42:01.206Z,14.70
2022-10-30T18:44:33.924Z,14.70
2022-10-30T18:47:10.879Z,14.70
2022-10-30T18:49:43.607Z,14.60
2022-10-30T18:52:16.458Z,14.60
2022-10-30T18:54:49.431Z,14.60
2022-10-30T18:57:22.229Z,14.60
2022-10-30T18:59:54.884Z,14.50
2022-10-30T19:02:27.802Z,14.50
2022-10-30T19:05:01.511Z,14.50
2022-10-30T19:07:34.706Z,14.40
2022-10-30T19:10:08.303Z,14.40
2022-10-30T19:12:51.479Z,14.30
2022-10-30T19:15:37.489Z,14.30
2022-10-30T19:18:11.897Z,14.30
2022-10-30T19:21:03.401Z,14.20
2022-10-30T19:23:38.036Z,14.20
2022-10-30T19:26:14.703Z,14.10
2022-10-30T19:28:48.157Z,14.10
2022-10-30T19:31:21.485Z,14.10
2022-10-30T19:33:57.436Z,14.00
2022-10-30T19:36:36.229Z,14.00
2022-10-30T19:39:15.703Z,13.90
2022-10-30T19:41:48.958Z,13.90
2022-10-30T19:44:21.811Z,13.90
2022-10-30T19:46:54.849Z,13.80
2022-10-30T19:49:27.618Z,13.80
2022-10-30T19:52:00.445Z,13.70
2022-10-30T19:54:33.461Z,13.70
2022-10-30T19:57:12.178Z,13.70
2022-10-30T19:59:44.928Z,13.70
2022-10-30T20:02:17.701Z,13.70
2022-10-30T20:04:50.425Z,13.70
2022-10-30T20:07:23.212Z,13.80
2022-10-30T20:09:56.203Z,13.70
2022-10-30T20:12:29.259Z,13.80
2022-10-30T20:15:02.107Z,13.70
2022-10-30T20:17:34.975Z,13.60
2022-10-30T20:20:10.195Z,13.50
2022-10-30T20:22:42.914Z,13.50
2022-10-30T20:25:16.101Z,13.40
2022-10-30T20:30:29.820Z,13.30
2022-10-30T20:33:02.875Z,13.30
2022-10-30T20:35:36.118Z,13.30
2022-10-30T20:38:28.653Z,13.30
2022-10-30T20:41:04.442Z,13.30
2022-10-30T20:43:38.531Z,13.20
2022-10-30T20:46:11.464Z,13.30
2022-10-30T20:48:44.243Z,13.20
2022-10-30T20:51:17.622Z,13.20
2022-10-30T20:53:50.649Z,13.10
2022-10-30T20:56:23.359Z,13.00
2022-10-30T20:58:56.255Z,13.00
